createdAt,value
2023-03-26T00:05:05.752Z,97575.95
2023-03-26T00:08:11.437Z,97572.32
2023-03-26T00:11:27.668Z,97563.84
2023-03-26T00:14:35.734Z,97564.60
2023-03-26T00:17:42.816Z,97568.35
2023-03-26T00:20:50.534Z,97564.13
2023-03-26T00:24:03.632Z,97561.33
2023-03-26T00:27:16.384Z,97563.61
2023-03-26T00:30:24.983Z,97566.94
2023-03-26T00:33:39.521Z,97569.59
2023-03-26T00:36:47.642Z,97565.89
2023-03-26T00:39:52.669Z,97571.06
2023-03-26T00:43:20.562Z,97568.44
2023-03-26T00:46:32.403Z,97571.23
2023-03-26T00:49:39.306Z,97572.95
2023-03-26T00:52:48.955Z,97572.92
2023-03-26T00:56:03.716Z,97568.64
2023-03-26T00:59:10.576Z,97583.16
2023-03-26T01:02:18.997Z,97584.15
2023-03-26T01:05:47.471Z,97579.48
2023-03-26T01:09:04.342Z,97585.86
2023-03-26T01:12:14.133Z,97580.69
2023-03-26T01:15:23.814Z,97574.85
2023-03-26T01:18:34.802Z,97572.09
2023-03-26T01:21:40.116Z,97571.91
2023-03-26T01:24:54.610Z,97569.55
2023-03-26T01:28:01.253Z,97576.56
2023-03-26T01:31:21.943Z,97577.75
2023-03-26T01:35:14.474Z,97585.30
2023-03-26T01:38:38.748Z,97587.70
2023-03-26T01:41:59.070Z,97601.90
2023-03-26T01:45:39.325Z,97601.16
2023-03-26T01:48:50.048Z,97610.84
2023-03-26T01:52:08.117Z,97599.71
2023-03-26T01:55:15.784Z,97607.27
2023-03-26T01:58:45.260Z,97607.33
2023-03-26T02:05:47.874Z,97615.80
2023-03-26T02:09:02.394Z,97621.70
2023-03-26T02:12:07.240Z,97632.70
2023-03-26T02:15:12.700Z,97629.51
2023-03-26T02:18:17.323Z,97642.05
2023-03-26T02:21:23.078Z,97639.39
2023-03-26T02:24:29.401Z,97653.69
2023-03-26T02:27:36.027Z,97661.09
2023-03-26T02:30:45.774Z,97668.42
2023-03-26T02:33:50.939Z,97672.31
2023-03-26T02:36:53.552Z,97670.52
2023-03-26T02:40:00.498Z,97667.09
2023-03-26T02:43:11.875Z,97677.41
2023-03-26T02:46:16.101Z,97681.27
2023-03-26T02:49:44.599Z,97679.88
2023-03-26T02:52:58.191Z,97677.55
2023-03-26T02:56:05.379Z,97681.55
2023-03-26T02:59:15.227Z,97693.05
2023-03-26T03:02:26.675Z,97695.23
2023-03-26T03:05:34.796Z,97696.77
2023-03-26T03:09:05.003Z,97704.43
2023-03-26T03:12:16.977Z,97723.02
2023-03-26T03:15:32.536Z,97729.09
2023-03-26T03:18:39.661Z,97730.56
2023-03-26T03:21:44.710Z,97740.38
2023-03-26T03:24:52.610Z,97756.27
2023-03-26T03:27:59.974Z,97759.77
2023-03-26T03:31:04.880Z,97770.65
2023-03-26T03:34:13.123Z,97770.82
2023-03-26T03:37:23.427Z,97775.10
2023-03-26T03:40:31.727Z,97779.02
2023-03-26T03:43:46.712Z,97775.86
2023-03-26T03:46:56.811Z,97774.10
2023-03-26T03:50:00.581Z,97778.31
2023-03-26T03:53:05.873Z,97785.71
2023-03-26T03:56:20.425Z,97783.40
2023-03-26T04:00:00.173Z,97789.05
2023-03-26T04:05:22.741Z,97793.98
2023-03-26T04:08:35.964Z,97793.75
2023-03-26T04:11:53.611Z,97790.18
2023-03-26T04:16:02.508Z,97794.96
2023-03-26T04:19:47.776Z,97800.85
2023-03-26T04:23:38.277Z,97806.51
2023-03-26T04:26:54.743Z,97808.83
2023-03-26T04:30:11.572Z,97817.64
2023-03-26T04:33:19.573Z,97824.20
2023-03-26T04:36:32.048Z,97827.73
2023-03-26T04:39:40.098Z,97825.28
2023-03-26T04:43:12.250Z,97827.80
2023-03-26T04:46:54.748Z,97830.02
2023-03-26T04:50:15.162Z,97835.89
2023-03-26T04:53:23.706Z,97843.00
2023-03-26T04:57:00.179Z,97847.73
2023-03-26T05:00:30.987Z,97840.33
2023-03-26T05:03:42.017Z,97834.68
2023-03-26T05:06:49.059Z,97840.39
2023-03-26T05:10:11.856Z,97830.30
2023-03-26T05:13:28.844Z,97834.33
2023-03-26T05:16:41.421Z,97847.98
2023-03-26T05:19:47.124Z,97858.33
2023-03-26T05:22:57.038Z,97873.11
2023-03-26T05:26:11.925Z,97885.83
2023-03-26T05:29:17.458Z,97887.33
2023-03-26T05:32:27.912Z,97873.34
2023-03-26T05:35:37.773Z,97884.64
2023-03-26T05:38:49.761Z,97882.81
2023-03-26T05:42:24.988Z,97880.28
2023-03-26T05:45:53.975Z,97879.92
2023-03-26T05:49:04.901Z,97885.36
2023-03-26T05:52:18.536Z,97883.36
2023-03-26T05:55:57.373Z,97878.20
2023-03-26T05:59:26.584Z,97877.89
2023-03-26T06:05:39.330Z,97875.41
2023-03-26T06:09:20.434Z,97878.77
2023-03-26T06:12:31.075Z,97880.06
2023-03-26T06:15:40.795Z,97876.97
2023-03-26T06:18:57.420Z,97881.30
2023-03-26T06:22:20.502Z,97876.34
2023-03-26T06:25:45.250Z,97880.75
2023-03-26T06:29:25.106Z,97883.58
2023-03-26T06:32:41.423Z,97886.15
2023-03-26T06:35:51.737Z,97886.19
2023-03-26T06:39:00.131Z,97887.45
2023-03-26T06:42:19.544Z,97883.30
2023-03-26T06:45:56.473Z,97881.20
2023-03-26T06:49:14.708Z,97876.98
2023-03-26T06:52:45.604Z,97875.75
2023-03-26T06:56:40.507Z,97878.40
2023-03-26T07:00:16.271Z,97877.48
2023-03-26T07:03:54.376Z,97879.52
2023-03-26T07:07:21.672Z,97880.75
2023-03-26T07:11:07.010Z,97882.67
2023-03-26T07:14:38.293Z,97888.19
2023-03-26T07:17:53.086Z,97893.92
2023-03-26T07:21:11.940Z,97891.34
2023-03-26T07:24:19.352Z,97893.96
2023-03-26T07:27:57.331Z,97903.86
2023-03-26T07:31:47.573Z,97907.34
2023-03-26T07:35:29.108Z,97901.88
2023-03-26T07:39:22.658Z,97905.61
2023-03-26T07:42:58.336Z,97905.20
2023-03-26T07:46:31.532Z,97915.67
2023-03-26T07:49:51.994Z,97913.12
2023-03-26T07:53:07.462Z,97912.98
2023-03-26T07:57:11.210Z,97923.52
2023-03-26T08:00:54.161Z,97922.39
2023-03-26T08:04:55.267Z,97916.11
2023-03-26T08:08:52.745Z,97920.15
2023-03-26T08:12:46.078Z,97922.61
2023-03-26T08:16:11.127Z,97921.66
2023-03-26T08:19:38.141Z,97924.27
2023-03-26T08:22:50.239Z,97921.45
2023-03-26T08:26:12.314Z,97924.73
2023-03-26T08:29:27.198Z,97921.41
2023-03-26T08:32:31.294Z,97910.38
2023-03-26T08:35:42.473Z,97916.02
2023-03-26T08:38:49.060Z,97910.27
2023-03-26T08:42:03.643Z,97907.17
2023-03-26T08:45:34.302Z,97911.56
2023-03-26T08:49:02.113Z,97916.33
2023-03-26T08:52:40.880Z,97916.44
2023-03-26T08:56:29.238Z,97907.54
2023-03-26T08:59:57.809Z,97904.63
2023-03-26T09:03:07.184Z,97910.66
2023-03-26T09:06:18.465Z,97910.04
2023-03-26T09:10:02.522Z,97917.06
2023-03-26T09:13:31.799Z,97908.36
2023-03-26T09:17:15.763Z,97914.83
2023-03-26T09:20:38.907Z,97915.00
2023-03-26T09:24:25.590Z,97907.56
2023-03-26T09:28:15.513Z,97899.67
2023-03-26T09:31:45.983Z,97907.14
2023-03-26T09:35:13.737Z,97909.81
2023-03-26T09:38:46.638Z,97913.77
2023-03-26T09:42:17.266Z,97915.47
2023-03-26T09:45:43.564Z,97919.94
2023-03-26T09:49:27.294Z,97926.12
2023-03-26T09:52:46.260Z,97934.41
2023-03-26T09:56:21.336Z,97932.15
2023-03-26T09:59:51.998Z,97940.60
2023-03-26T10:05:20.695Z,97923.68
2023-03-26T10:08:52.702Z,97924.72
2023-03-26T10:12:25.971Z,97927.40
2023-03-26T10:16:00.340Z,97920.11
2023-03-26T10:19:52.225Z,97928.73
2023-03-26T10:23:23.114Z,97921.38
2023-03-26T10:27:08.689Z,97924.08
2023-03-26T10:30:51.142Z,97924.95
2023-03-26T10:34:34.197Z,97935.77
2023-03-26T10:37:57.453Z,97927.55
2023-03-26T10:41:23.894Z,97932.58
2023-03-26T10:45:06.970Z,97942.45
2023-03-26T10:48:21.822Z,97942.11
2023-03-26T10:52:06.192Z,97938.89
2023-03-26T10:55:48.177Z,97921.27
2023-03-26T10:58:59.624Z,97918.87
2023-03-26T11:02:29.568Z,97918.79
2023-03-26T11:06:12.055Z,97921.33
2023-03-26T11:09:26.550Z,97923.19
2023-03-26T11:12:49.507Z,97916.00
2023-03-26T11:16:02.926Z,97907.57
2023-03-26T11:19:18.348Z,97896.04
2023-03-26T11:23:07.642Z,97890.58
2023-03-26T11:26:17.094Z,97889.55
2023-03-26T11:29:40.984Z,97894.06
2023-03-26T11:32:58.662Z,97887.02
2023-03-26T11:36:08.089Z,97890.52
2023-03-26T11:39:20.573Z,97888.83
2023-03-26T11:42:26.232Z,97882.70
2023-03-26T11:45:37.628Z,97898.14
2023-03-26T11:48:50.031Z,97888.56
2023-03-26T11:51:57.816Z,97888.06
2023-03-26T11:55:03.058Z,97881.11
2023-03-26T11:58:47.697Z,97883.59
2023-03-26T12:01:58.222Z,97872.56
2023-03-26T12:05:20.238Z,97875.52
2023-03-26T12:08:40.031Z,97883.05
2023-03-26T12:11:53.493Z,97872.98
2023-03-26T12:14:59.103Z,97870.48
2023-03-26T12:18:40.294Z,97872.05
2023-03-26T12:21:53.571Z,97872.59
2023-03-26T12:25:22.605Z,97881.89
2023-03-26T12:28:33.136Z,97889.88
2023-03-26T12:32:13.703Z,97897.02
2023-03-26T12:35:28.004Z,97885.52
2023-03-26T12:38:39.912Z,97879.69
2023-03-26T12:44:43.078Z,97871.39
2023-03-26T12:45:23.881Z,97867.29
2023-03-26T12:48:31.435Z,97865.29
2023-03-26T12:52:01.670Z,97852.64
2023-03-26T12:55:52.709Z,97844.97
2023-03-26T12:59:38.588Z,97840.29
2023-03-26T13:03:39.090Z,97842.73
2023-03-26T13:07:09.628Z,97842.49
2023-03-26T13:10:31.801Z,97838.86
2023-03-26T13:14:02.462Z,97840.52
2023-03-26T13:17:19.828Z,97838.70
2023-03-26T13:20:48.686Z,97831.88
2023-03-26T13:24:07.334Z,97828.65
2023-03-26T13:31:54.799Z,97826.07
2023-03-26T13:35:43.757Z,97837.77
2023-03-26T13:44:33.824Z,97849.14
2023-03-26T13:47:50.362Z,97838.22
2023-03-26T13:51:15.120Z,97846.13
2023-03-26T13:54:50.600Z,97848.33
2023-03-26T13:58:58.643Z,97843.81
2023-03-26T14:10:35.524Z,97846.42
2023-03-26T14:14:17.511Z,97839.52
2023-03-26T14:17:51.618Z,97851.34
2023-03-26T14:21:35.093Z,97865.12
2023-03-26T14:25:18.577Z,97884.71
2023-03-26T14:29:31.039Z,97872.60
2023-03-26T14:33:13.369Z,97860.39
2023-03-26T14:37:07.083Z,97860.02
2023-03-26T14:40:53.146Z,97852.39
2023-03-26T14:44:21.620Z,97854.79
2023-03-26T14:47:31.818Z,97857.45
2023-03-26T14:54:52.511Z,97851.56
2023-03-26T14:58:31.207Z,97844.89
2023-03-26T15:02:41.656Z,97835.98
2023-03-26T15:42:45.408Z,97834.73
2023-03-26T15:46:19.804Z,97846.09
2023-03-26T15:49:51.138Z,97849.55
2023-03-26T15:53:45.818Z,97841.63
2023-03-26T16:08:11.949Z,97861.03
2023-03-26T16:12:00.443Z,97870.22
2023-03-26T16:15:48.525Z,97875.88
2023-03-26T16:19:56.369Z,97880.37
2023-03-26T16:23:23.813Z,97884.43
2023-03-26T16:27:13.931Z,97885.00
2023-03-26T16:31:37.196Z,97892.68
2023-03-26T16:34:56.001Z,97896.23
2023-03-26T16:38:20.113Z,97899.13
2023-03-26T16:41:32.436Z,97905.48
2023-03-26T16:45:15.211Z,97908.14
2023-03-26T16:53:57.957Z,97924.90
2023-03-26T16:58:11.836Z,97941.06
2023-03-26T17:02:14.566Z,97938.77
2023-03-26T17:05:59.298Z,97940.60
2023-03-26T17:09:33.977Z,97938.29
2023-03-26T17:13:08.461Z,97932.86
2023-03-26T17:16:27.848Z,97925.65
2023-03-26T17:20:36.763Z,97926.98
2023-03-26T17:24:15.324Z,97926.45
2023-03-26T17:28:01.584Z,97923.80
2023-03-26T17:35:14.544Z,97933.52
2023-03-26T17:38:49.674Z,97928.26
2023-03-26T17:42:40.646Z,97932.11
2023-03-26T17:46:03.360Z,97938.68
2023-03-26T17:49:23.952Z,97936.77
2023-03-26T17:53:17.397Z,97938.71
2023-03-26T17:57:13.747Z,97940.30
2023-03-26T18:17:23.295Z,97949.14
2023-03-26T18:21:03.980Z,97954.88
2023-03-26T18:25:03.305Z,97956.70
2023-03-26T18:29:22.554Z,97957.30
2023-03-26T18:33:04.686Z,97957.27
2023-03-26T18:36:48.742Z,97959.39
2023-03-26T18:40:40.016Z,97963.83
2023-03-26T18:49:00.339Z,97964.10
2023-03-26T18:52:30.732Z,97963.30
2023-03-26T18:56:33.156Z,97957.27
2023-03-26T19:00:17.998Z,97954.46
2023-03-26T19:08:42.107Z,97960.39
2023-03-26T19:12:29.128Z,97958.65
2023-03-26T19:20:21.345Z,97962.30
2023-03-26T19:27:57.166Z,97965.48
2023-03-26T19:31:44.109Z,97964.59
2023-03-26T19:45:17.049Z,97958.38
2023-03-26T19:49:39.431Z,97953.77
2023-03-26T20:02:02.557Z,97952.33
2023-03-26T20:05:29.161Z,97944.72
2023-03-26T20:08:40.376Z,97944.02
2023-03-26T20:11:46.842Z,97942.64
2023-03-26T20:15:29.366Z,97947.50
2023-03-26T20:18:39.255Z,97950.52
2023-03-26T20:21:47.930Z,97949.84
2023-03-26T20:24:54.261Z,97953.36
2023-03-26T20:28:10.562Z,97953.05
2023-03-26T20:31:41.912Z,97953.58
2023-03-26T20:34:51.458Z,97957.23
2023-03-26T20:37:56.708Z,97954.48
2023-03-26T20:41:27.398Z,97952.54
2023-03-26T20:44:48.240Z,97951.61
2023-03-26T20:47:54.787Z,97956.67
2023-03-26T20:50:57.403Z,97956.70
2023-03-26T20:54:24.032Z,97955.89
2023-03-26T20:57:34.512Z,97958.84
2023-03-26T21:00:43.299Z,97958.36
2023-03-26T21:04:03.998Z,97955.73
2023-03-26T21:07:18.340Z,97958.57
2023-03-26T21:10:33.830Z,97953.67
2023-03-26T21:14:03.940Z,97959.61
2023-03-26T21:17:16.346Z,97962.30
2023-03-26T21:20:28.245Z,97968.01
2023-03-26T21:23:57.528Z,97966.23
2023-03-26T21:27:37.301Z,97966.75
2023-03-26T21:30:52.142Z,97970.61
2023-03-26T21:34:03.525Z,97971.23
2023-03-26T21:37:11.035Z,97970.79
2023-03-26T21:40:28.614Z,97965.92
2023-03-26T21:43:45.086Z,97963.67
2023-03-26T21:46:52.200Z,97963.63
2023-03-26T21:49:58.820Z,97966.52
2023-03-26T21:53:05.185Z,97966.39
2023-03-26T21:56:32.512Z,97961.31
2023-03-26T22:00:23.678Z,97960.50
2023-03-26T22:05:48.538Z,97959.86
2023-03-26T22:08:52.418Z,97963.95
2023-03-26T22:11:57.836Z,97959.46
2023-03-26T22:15:16.288Z,97959.30
2023-03-26T22:18:25.688Z,97961.33
2023-03-26T22:21:33.432Z,97954.33
2023-03-26T22:24:40.523Z,97951.13
2023-03-26T22:27:47.426Z,97951.70
2023-03-26T22:30:52.364Z,97956.93
2023-03-26T22:33:59.516Z,97961.39
2023-03-26T22:37:05.524Z,97957.96
2023-03-26T22:40:13.189Z,97950.62
2023-03-26T22:43:19.855Z,97947.58
2023-03-26T22:46:23.090Z,97942.55
2023-03-26T22:49:31.011Z,97947.84
2023-03-26T22:52:42.781Z,97952.70
2023-03-26T22:55:50.929Z,97948.52
2023-03-26T22:59:00.915Z,97945.73
2023-03-26T23:02:09.995Z,97941.13
2023-03-26T23:05:18.212Z,97941.08
2023-03-26T23:08:24.936Z,97944.22
2023-03-26T23:11:32.945Z,97945.02
2023-03-26T23:14:35.998Z,97939.66
2023-03-26T23:17:41.853Z,97932.64
2023-03-26T23:20:58.195Z,97935.98
2023-03-26T23:24:04.192Z,97939.17
